Time;durP1;ratioP1;P1;durP2;ratioP2;P2;SDS_P1;SDS_P2;PMS_P1;PMS_P2;Temp;Humidity;BMP_temperature;BMP_pressure;BME280_temperature;BME280_humidity;BME280_pressure;Samples;Min_cycle;Max_cycle;Signal;HPM_P1;HPM_P2
2020/12/21 00:00:11;;;;;;;49.98;23.18;;;;;;;2.09;84.46;101794.53;1718812;80;25951;-84
2020/12/21 00:02:47;;;;;;;41.70;21.82;;;;;;;2.12;84.52;101797.42;1739802;81;26379;-83
2020/12/21 00:05:15;;;;;;;38.60;19.48;;;;;;;2.15;84.47;101793.26;1723194;82;26199;-84
2020/12/21 00:07:42;;;;;;;42.43;20.65;;;;;;;2.18;84.47;101798.34;1710010;80;25489;-84
2020/12/21 00:10:09;;;;;;;34.48;20.20;;;;;;;2.21;84.41;101799.45;1753702;80;26097;-83
2020/12/21 00:12:37;;;;;;;37.10;18.00;;;;;;;2.19;84.27;101796.06;1743794;81;26086;-85
2020/12/21 00:15:07;;;;;;;35.68;18.67;;;;;;;2.20;84.21;101795.95;1704570;82;27621;-85
2020/12/21 00:17:36;;;;;;;36.30;18.35;;;;;;;2.18;84.21;101794.39;1721551;81;26284;-83
2020/12/21 00:20:04;;;;;;;36.77;17.73;;;;;;;2.19;84.20;101790.77;1729381;82;25895;-83
2020/12/21 00:22:32;;;;;;;36.35;19.15;;;;;;;2.18;84.24;101782.49;1746913;81;25905;-84
2020/12/21 00:24:59;;;;;;;36.80;18.60;;;;;;;2.18;84.26;101785.13;1705889;83;26162;-84
2020/12/21 00:27:26;;;;;;;36.25;18.32;;;;;;;2.20;84.34;101788.02;1694434;82;28516;-84
2020/12/21 00:29:54;;;;;;;40.85;19.95;;;;;;;2.23;84.37;101788.29;1731134;81;25914;-84
2020/12/21 00:32:21;;;;;;;47.13;21.52;;;;;;;2.28;84.48;101781.76;1732454;81;25868;-86
2020/12/21 00:34:49;;;;;;;37.95;18.57;;;;;;;2.32;84.44;101782.38;1739580;81;25822;-84
2020/12/21 00:37:16;;;;;;;36.30;18.77;;;;;;;2.34;84.30;101783.98;1716094;81;25759;-83
2020/12/21 00:39:44;;;;;;;35.52;17.80;;;;;;;2.35;84.23;101790.12;1755183;80;27093;-84
2020/12/21 00:42:11;;;;;;;40.43;20.50;;;;;;;2.34;84.19;101791.91;1733225;80;26287;-83
2020/12/21 00:44:38;;;;;;;35.50;18.45;;;;;;;2.35;84.20;101792.77;1693563;81;25894;-84
2020/12/21 00:47:06;;;;;;;39.48;18.98;;;;;;;2.36;84.18;101799.72;1727890;80;25785;-84
2020/12/21 00:49:33;;;;;;;38.35;18.95;;;;;;;2.36;84.14;101803.69;1723700;80;25916;-84
2020/12/21 00:52:02;;;;;;;37.45;20.12;;;;;;;2.34;84.11;101807.77;1752904;80;28520;-84
2020/12/21 00:54:30;;;;;;;38.08;17.87;;;;;;;2.34;84.17;101811.73;1745276;80;25916;-84
2020/12/21 00:56:58;;;;;;;40.38;19.95;;;;;;;2.35;84.16;101814.73;1754871;81;25908;-83
2020/12/21 00:59:25;;;;;;;42.40;19.82;;;;;;;2.35;84.18;101814.73;1708005;83;25783;-84
2020/12/21 01:01:53;;;;;;;42.08;20.80;;;;;;;2.39;84.22;101808.78;1731798;80;25934;-84
2020/12/21 01:04:21;;;;;;;42.43;20.95;;;;;;;2.38;84.14;101811.04;1729761;80;27538;-85
2020/12/21 01:09:31;;;;;;;41.33;20.05;;;;;;;2.46;84.14;101803.42;1804124;78;25858;-84
2020/12/21 01:11:58;;;;;;;36.75;19.07;;;;;;;2.40;84.05;101802.53;1732092;80;26130;-84
2020/12/21 01:14:26;;;;;;;46.58;21.02;;;;;;;2.41;84.05;101803.37;1764984;80;27157;-85
2020/12/21 01:16:54;;;;;;;37.33;18.40;;;;;;;2.39;83.98;101800.84;1798472;78;25748;-84
2020/12/21 01:19:21;;;;;;;40.63;19.82;;;;;;;2.38;83.95;101796.97;1736823;80;25872;-84
2020/12/21 01:21:48;;;;;;;39.60;19.80;;;;;;;2.38;84.03;101793.86;1747654;78;25824;-84
2020/12/21 01:24:16;;;;;;;41.77;19.20;;;;;;;2.39;83.99;101785.45;1767727;78;25843;-84
2020/12/21 01:26:43;;;;;;;45.70;19.92;;;;;;;2.37;83.93;101784.25;1761355;78;27614;-84
2020/12/21 01:29:10;;;;;;;44.25;20.52;;;;;;;2.36;83.93;101782.54;1727728;80;25903;-83
2020/12/21 01:31:38;;;;;;;40.92;18.25;;;;;;;2.39;83.97;101778.84;1754384;78;25827;-84
2020/12/21 01:34:05;;;;;;;38.78;19.07;;;;;;;2.39;83.91;101786.31;1752800;78;26359;-84
2020/12/21 01:36:32;;;;;;;30.77;16.70;;;;;;;2.39;83.91;101778.38;1772458;78;25927;-83
2020/12/21 01:39:00;;;;;;;36.60;17.98;;;;;;;2.37;83.82;101777.64;1753228;78;27595;-84
2020/12/21 01:41:27;;;;;;;35.63;15.98;;;;;;;2.37;83.85;101778.10;1769708;80;26217;-84
2020/12/21 01:43:56;;;;;;;34.48;17.32;;;;;;;2.38;83.86;101783.75;1756643;80;25879;-84
2020/12/21 01:46:24;;;;;;;37.05;17.92;;;;;;;2.38;83.86;101778.45;1749024;81;25836;-84
2020/12/21 01:48:51;;;;;;;35.40;17.80;;;;;;;2.38;83.85;101782.42;1723672;82;26125;-84
2020/12/21 01:51:26;;;;;;;34.03;17.65;;;;;;;2.38;83.92;101776.67;1721986;81;27341;-84
2020/12/21 01:53:56;;;;;;;36.13;18.30;;;;;;;2.40;83.79;101771.27;1714828;81;26181;-84
2020/12/21 01:56:23;;;;;;;34.92;17.75;;;;;;;2.41;83.93;101765.04;1747868;80;25951;-84
2020/12/21 01:58:51;;;;;;;37.53;17.87;;;;;;;2.43;83.82;101765.78;1680766;83;25859;-83
2020/12/21 02:01:19;;;;;;;37.78;18.95;;;;;;;2.42;83.86;101760.13;1705397;82;26610;-84
2020/12/21 02:03:48;;;;;;;38.25;19.77;;;;;;;2.43;83.86;101757.84;1710372;81;28506;-83
2020/12/21 02:06:18;;;;;;;35.20;17.27;;;;;;;2.43;83.93;101752.55;1738557;81;26143;-83
2020/12/21 02:08:45;;;;;;;39.90;19.90;;;;;;;2.44;83.88;101756.91;1683261;81;25388;-84
2020/12/21 02:11:13;;;;;;;38.13;19.77;;;;;;;2.45;83.89;101750.18;1719673;81;25750;-85
2020/12/21 02:13:40;;;;;;;33.40;17.65;;;;;;;2.45;83.76;101755.47;1714863;83;25897;-82
2020/12/21 02:16:11;;;;;;;36.88;18.05;;;;;;;2.44;83.85;101755.59;1766170;80;28355;-83
2020/12/21 02:18:37;;;;;;;38.48;18.40;;;;;;;2.44;83.91;101759.05;1711588;80;25840;-85
2020/12/21 02:21:04;;;;;;;39.55;19.00;;;;;;;2.47;84.01;101763.29;1740377;81;25732;-85
2020/12/21 02:23:32;;;;;;;39.42;19.37;;;;;;;2.52;83.99;101762.50;1716018;80;25899;-84
2020/12/21 02:25:59;;;;;;;31.57;17.02;;;;;;;2.53;83.91;101762.85;1749429;81;26073;-85
2020/12/21 02:28:26;;;;;;;38.33;18.17;;;;;;;2.52;83.87;101755.42;1688568;81;28511;-85
2020/12/21 02:30:54;;;;;;;40.35;19.98;;;;;;;2.53;83.82;101749.16;1684487;82;26048;-85
2020/12/21 02:33:21;;;;;;;36.55;17.85;;;;;;;2.54;83.83;101735.47;1734013;81;25770;-85
2020/12/21 02:35:48;;;;;;;38.67;20.35;;;;;;;2.52;83.79;101730.77;1736294;81;25851;-83
2020/12/21 02:38:16;;;;;;;42.38;18.87;;;;;;;2.52;83.82;101728.98;1690302;81;25979;-86
2020/12/21 02:40:43;;;;;;;34.58;17.55;;;;;;;2.53;83.89;101735.94;1720463;81;27609;-85
2020/12/21 02:43:11;;;;;;;38.02;18.55;;;;;;;2.56;83.95;101727.80;1706394;83;25899;-84
2020/12/21 02:45:38;;;;;;;37.17;17.05;;;;;;;2.55;83.83;101727.42;1740509;81;25888;-83
2020/12/21 02:48:06;;;;;;;33.02;16.62;;;;;;;2.54;83.76;101729.71;1686158;83;26130;-84
2020/12/21 02:50:33;;;;;;;39.80;19.12;;;;;;;2.52;83.84;101728.98;1674270;82;25806;-83
2020/12/21 02:53:01;;;;;;;42.27;20.70;;;;;;;2.53;83.91;101731.12;1703814;83;27121;-83
2020/12/21 02:55:28;;;;;;;37.42;19.32;;;;;;;2.55;84.03;101734.50;1736060;81;26030;-85
2020/12/21 02:57:56;;;;;;;39.25;18.62;;;;;;;2.59;83.98;101726.75;1685046;83;25921;-84
2020/12/21 03:00:23;;;;;;;45.00;19.60;;;;;;;2.59;83.95;101722.27;1706891;81;26331;-84
2020/12/21 03:02:50;;;;;;;39.53;20.52;;;;;;;2.59;83.90;101723.59;1715664;81;25418;-83
2020/12/21 03:05:18;;;;;;;37.80;18.85;;;;;;;2.59;83.95;101716.98;1732909;81;27538;-84
2020/12/21 03:07:46;;;;;;;39.18;19.37;;;;;;;2.59;83.93;101719.62;1659250;83;25857;-84
2020/12/21 03:10:14;;;;;;;44.42;22.32;;;;;;;2.59;84.01;101719.62;1709008;83;25971;-84
2020/12/21 03:12:41;;;;;;;45.92;20.92;;;;;;;2.58;83.96;101717.95;1679566;83;25870;-83
2020/12/21 03:15:10;;;;;;;42.03;20.37;;;;;;;2.58;84.06;101719.28;1717100;83;26117;-84
2020/12/21 03:17:37;;;;;;;38.92;18.80;;;;;;;2.60;84.11;101717.38;1667530;83;27492;-83
2020/12/21 03:20:05;;;;;;;43.58;21.05;;;;;;;2.62;84.11;101714.61;1663010;84;25807;-85
2020/12/21 03:22:32;;;;;;;42.10;21.50;;;;;;;2.62;84.15;101716.78;1680978;84;25783;-84
2020/12/21 03:25:00;;;;;;;36.45;18.70;;;;;;;2.65;84.16;101719.70;1712290;83;25765;-84
2020/12/21 03:27:28;;;;;;;47.50;23.60;;;;;;;2.64;84.10;101716.66;1647782;84;25952;-82
2020/12/21 03:29:55;;;;;;;42.60;20.57;;;;;;;2.64;84.18;101710.05;1679078;83;27570;-84
2020/12/21 03:32:22;;;;;;;41.83;20.80;;;;;;;2.66;84.21;101705.03;1693572;83;26293;-83
2020/12/21 03:34:52;;;;;;;49.48;23.20;;;;;;;2.66;84.22;101708.14;1715649;83;25738;-84
2020/12/21 03:37:19;;;;;;;48.05;21.95;;;;;;;2.67;84.23;101696.16;1648347;83;25968;-84
2020/12/21 03:39:47;;;;;;;49.33;21.65;;;;;;;2.68;84.22;101697.83;1666515;83;26655;-84
2020/12/21 03:42:14;;;;;;;49.20;22.48;;;;;;;2.70;84.26;101699.03;1653237;83;28698;-85
2020/12/21 03:44:42;;;;;;;49.20;23.38;;;;;;;2.69;84.26;101703.50;1698594;83;26465;-83
2020/12/21 03:47:10;;;;;;;48.13;24.57;;;;;;;2.71;84.31;101696.77;1662354;83;25842;-83
2020/12/21 03:49:37;;;;;;;51.92;22.45;;;;;;;2.71;84.28;101696.77;1681901;84;25438;-84
2020/12/21 03:52:05;;;;;;;50.85;21.90;;;;;;;2.71;84.38;101696.30;1708420;81;25916;-83
2020/12/21 03:54:32;;;;;;;55.95;24.60;;;;;;;2.75;84.37;101702.20;1721612;83;28301;-83
2020/12/21 03:57:00;;;;;;;51.18;22.67;;;;;;;2.72;84.38;101701.94;1661177;84;25818;-83
2020/12/21 03:59:27;;;;;;;52.55;23.35;;;;;;;2.73;84.37;101699.67;1669855;84;25911;-84
2020/12/21 04:01:55;;;;;;;52.62;24.05;;;;;;;2.72;84.40;101700.61;1669641;84;26517;-83
2020/12/21 04:04:22;;;;;;;49.77;23.25;;;;;;;2.71;84.37;101696.77;1708205;83;25939;-83
2020/12/21 04:06:51;;;;;;;52.70;24.27;;;;;;;2.71;84.43;101696.30;1662853;84;28442;-84
2020/12/21 04:09:18;;;;;;;53.17;24.65;;;;;;;2.72;84.44;101693.15;1695713;81;25848;-83
2020/12/21 04:11:45;;;;;;;53.40;23.75;;;;;;;2.73;84.47;101692.20;1701421;82;25865;-84
2020/12/21 04:14:13;;;;;;;52.60;24.25;;;;;;;2.72;84.49;101690.03;1740010;81;25703;-83
2020/12/21 04:16:40;;;;;;;54.85;24.92;;;;;;;2.72;84.50;101687.86;1649614;82;26313;-84
2020/12/21 04:19:08;;;;;;;54.42;23.60;;;;;;;2.70;84.54;101687.98;1693156;81;27550;-85
2020/12/21 04:21:35;;;;;;;55.20;23.55;;;;;;;2.70;84.59;101686.66;1701945;83;25810;-84
2020/12/21 04:24:02;;;;;;;55.40;24.43;;;;;;;2.70;84.65;101685.80;1740204;81;26242;-84
2020/12/21 04:26:30;;;;;;;53.58;23.62;;;;;;;2.72;84.70;101689.18;1691298;83;25876;-85
2020/12/21 04:28:57;;;;;;;51.37;23.38;;;;;;;2.73;84.65;101689.09;1708075;83;25882;-83
2020/12/21 04:31:24;;;;;;;56.95;26.45;;;;;;;2.73;84.62;101680.30;1698863;83;28279;-84
2020/12/21 04:33:52;;;;;;;61.35;25.90;;;;;;;2.72;84.61;101679.45;1694879;83;25930;-84
2020/12/21 04:36:19;;;;;;;55.58;25.30;;;;;;;2.74;84.66;101680.66;1681557;81;26128;-85
2020/12/21 04:38:47;;;;;;;52.08;23.98;;;;;;;2.72;84.62;101683.42;1660648;83;25738;-84
2020/12/21 04:41:14;;;;;;;50.55;23.70;;;;;;;2.73;84.71;101690.89;1731017;82;25892;-85
2020/12/21 04:43:41;;;;;;;57.27;25.27;;;;;;;2.73;84.66;101683.80;1695515;83;27616;-84
2020/12/21 04:46:09;;;;;;;58.08;26.65;;;;;;;2.75;84.74;101687.66;1721173;81;25793;-83
2020/12/21 04:48:41;;;;;;;58.98;26.05;;;;;;;2.79;84.78;101689.12;1706001;81;25802;-84
2020/12/21 04:51:09;;;;;;;58.85;25.02;;;;;;;2.79;84.70;101688.65;1743801;81;25891;-83
2020/12/21 04:53:40;;;;;;;54.45;25.10;;;;;;;2.80;84.69;101688.17;1679881;82;26224;-84
2020/12/21 04:56:07;;;;;;;55.50;26.68;;;;;;;2.81;84.74;101684.09;1674618;82;27611;-83
2020/12/21 04:58:35;;;;;;;62.27;25.92;;;;;;;2.83;84.72;101679.53;1713719;81;25882;-84
2020/12/21 05:01:03;;;;;;;60.17;27.37;;;;;;;2.85;84.65;101675.44;1741850;81;25819;-84
2020/12/21 05:03:30;;;;;;;62.27;26.65;;;;;;;2.86;84.61;101669.20;1697242;82;26550;-85
2020/12/21 05:06:07;;;;;;;58.33;25.00;;;;;;;2.85;84.55;101670.15;1686450;81;25949;-84
2020/12/21 05:08:35;;;;;;;61.73;26.33;;;;;;;2.84;84.57;101672.45;1683453;81;28038;-84
2020/12/21 05:11:04;;;;;;;61.88;26.62;;;;;;;2.84;84.62;101668.47;1712969;83;25851;-83
2020/12/21 05:13:34;;;;;;;55.95;24.37;;;;;;;2.84;84.62;101673.30;1665471;82;25789;-83
2020/12/21 05:16:03;;;;;;;56.28;25.08;;;;;;;2.82;84.52;101677.00;1682425;82;25867;-84
2020/12/21 05:21:12;;;;;;;57.58;24.85;;;;;;;2.87;84.63;101669.55;1814544;77;25431;-84
2020/12/21 05:23:39;;;;;;;58.78;25.50;;;;;;;2.82;84.61;101669.06;1774355;78;26054;-85
2020/12/21 05:26:11;;;;;;;62.80;28.55;;;;;;;2.81;84.63;101665.56;1770362;80;28348;-83
2020/12/21 05:28:40;;;;;;;56.25;27.93;;;;;;;2.82;84.67;101663.77;1791189;79;25989;-85
2020/12/21 05:31:10;;;;;;;64.67;28.27;;;;;;;2.81;84.66;101666.04;1748431;78;26018;-84
2020/12/21 05:33:44;;;;;;;58.00;27.13;;;;;;;2.81;84.71;101656.78;1741346;78;26990;-84
2020/12/21 05:36:15;;;;;;;54.83;24.92;;;;;;;2.81;84.74;101662.92;1767485;77;25821;-84
2020/12/21 05:38:55;;;;;;;63.05;28.90;;;;;;;2.81;84.67;101662.07;1790135;78;27580;-83
2020/12/21 05:41:23;;;;;;;57.00;25.65;;;;;;;2.82;84.78;101663.77;1757164;80;25949;-84
2020/12/21 05:43:53;;;;;;;68.75;28.10;;;;;;;2.83;84.79;101662.33;1765623;78;25827;-83
2020/12/21 05:46:24;;;;;;;59.40;26.75;;;;;;;2.84;84.75;101661.86;1765617;78;26424;-82
2020/12/21 05:48:55;;;;;;;66.42;27.75;;;;;;;2.84;84.75;101658.74;1795488;78;26163;-84
2020/12/21 05:51:28;;;;;;;;;;;;;;;2.86;84.69;101658.62;1711072;80;27325;-86
2020/12/21 05:53:57;;;;;;;64.32;27.00;;;;;;;2.86;84.74;101662.59;1743438;78;26449;-84
2020/12/21 05:56:27;;;;;;;69.13;30.53;;;;;;;2.84;84.79;101657.42;1780827;78;25850;-84
2020/12/21 05:58:56;;;;;;;64.53;28.65;;;;;;;2.87;84.74;101661.62;1764897;79;25690;-84
2020/12/21 06:01:25;;;;;;;63.13;26.48;;;;;;;2.87;84.74;101653.21;1736443;78;25861;-85
2020/12/21 06:03:58;;;;;;;66.87;29.35;;;;;;;2.89;84.71;101657.06;1781492;79;27696;-84
2020/12/21 06:06:31;;;;;;;66.70;28.25;;;;;;;2.89;84.70;101654.41;1779515;78;26449;-84
2020/12/21 06:09:02;;;;;;;71.02;29.12;;;;;;;2.86;84.66;101654.19;1768400;80;25931;-83
2020/12/21 06:11:34;;;;;;;65.17;30.02;;;;;;;2.88;84.71;101650.95;1725104;81;26158;-84
2020/12/21 06:14:15;;;;;;;76.00;32.30;;;;;;;2.90;84.70;101654.80;1753332;80;25856;-83
2020/12/21 06:16:42;;;;;;;63.70;28.27;;;;;;;2.91;84.71;101660.44;1678829;81;27332;-83
2020/12/21 06:19:12;;;;;;;65.87;28.80;;;;;;;2.89;84.64;101670.29;1712840;81;25824;-84
2020/12/21 06:21:53;;;;;;;66.72;29.18;;;;;;;2.90;84.66;101674.64;1694618;81;26181;-83
2020/12/21 06:24:23;;;;;;;61.92;27.98;;;;;;;2.90;84.68;101676.81;1732587;80;26162;-83
2020/12/21 06:26:51;;;;;;;62.05;28.65;;;;;;;2.90;84.69;101669.34;1758453;80;25475;-84
2020/12/21 06:29:27;;;;;;;73.45;31.37;;;;;;;2.91;84.73;101667.91;1725339;81;28358;-84
2020/12/21 06:32:04;;;;;;;68.72;30.50;;;;;;;2.95;84.69;101668.55;1709373;81;26365;-84
2020/12/21 06:34:38;;;;;;;59.95;27.70;;;;;;;2.95;84.65;101680.45;1713910;82;25914;-85
2020/12/21 06:37:16;;;;;;;59.05;27.62;;;;;;;2.95;84.64;101670.69;1722128;81;25830;-84
2020/12/21 06:39:44;;;;;;;62.67;27.67;;;;;;;2.96;84.63;101677.69;1716176;81;26364;-82
2020/12/21 06:42:14;;;;;;;69.50;28.42;;;;;;;2.97;84.67;101677.22;1715632;80;28477;-79
2020/12/21 06:44:43;;;;;;;63.78;28.83;;;;;;;2.98;84.64;101673.59;1734665;81;26238;-79
2020/12/21 06:47:12;;;;;;;67.45;30.88;;;;;;;3.00;84.62;101673.00;1728349;80;25893;-79
2020/12/21 06:49:40;;;;;;;63.68;28.47;;;;;;;3.01;84.64;101676.88;1693055;81;26186;-79
2020/12/21 06:52:08;;;;;;;65.57;28.98;;;;;;;3.03;84.59;101672.32;1723611;82;25955;-80
2020/12/21 06:54:36;;;;;;;63.40;28.80;;;;;;;3.03;84.55;101676.30;1741581;81;28372;-80
2020/12/21 06:57:03;;;;;;;60.75;26.57;;;;;;;3.03;84.57;101672.32;1715170;82;26535;-80
2020/12/21 06:59:31;;;;;;;62.93;30.32;;;;;;;3.05;84.43;101677.49;1731465;80;25881;-80
2020/12/21 07:01:59;;;;;;;64.82;29.10;;;;;;;3.04;84.44;101673.14;1698542;81;26264;-79
2020/12/21 07:04:29;;;;;;;66.65;28.85;;;;;;;3.03;84.43;101677.61;1741380;80;25770;-79
2020/12/21 07:07:02;;;;;;;61.40;28.07;;;;;;;3.03;84.46;101678.94;1740500;80;28425;-79
2020/12/21 07:09:33;;;;;;;66.42;28.95;;;;;;;3.02;84.48;101679.88;1723913;81;25798;-79
2020/12/21 07:12:07;;;;;;;68.47;30.43;;;;;;;3.03;84.47;101681.59;1727548;81;25915;-80
2020/12/21 07:14:39;;;;;;;67.00;29.77;;;;;;;3.02;84.43;101689.14;1726016;81;25475;-81
2020/12/21 07:17:11;;;;;;;;;;;;;;;3.03;84.45;101683.38;1704834;81;25866;-80
2020/12/21 07:19:42;;;;;;;59.85;27.52;;;;;;;3.03;84.46;101686.88;1714190;81;28602;-83
2020/12/21 07:22:12;;;;;;;63.90;29.07;;;;;;;3.02;84.50;101686.97;1669505;81;26110;-80
2020/12/21 07:24:43;;;;;;;62.13;28.75;;;;;;;3.02;84.49;101681.67;1718906;81;25777;-81
2020/12/21 07:27:10;;;;;;;;;;;;;;;3.05;84.49;101690.26;1743195;81;26001;-81
2020/12/21 07:29:40;;;;;;;59.90;26.12;;;;;;;3.06;84.41;101687.11;1723391;81;25358;-81
2020/12/21 07:32:08;;;;;;;58.52;27.35;;;;;;;3.03;84.45;101689.52;1724052;81;27535;-80
2020/12/21 07:34:38;;;;;;;65.15;29.42;;;;;;;3.03;84.42;101688.20;1716988;81;26724;-80
2020/12/21 07:37:12;;;;;;;63.85;29.65;;;;;;;3.02;84.52;101687.81;1697767;81;25364;-80
2020/12/21 07:39:50;;;;;;;67.62;28.20;;;;;;;3.10;84.46;101693.39;1827653;76;25802;-80
2020/12/21 07:42:19;;;;;;;62.05;27.93;;;;;;;3.07;84.51;101700.72;1780462;79;26618;-80
2020/12/21 07:44:54;;;;;;;73.42;32.03;;;;;;;3.07;84.50;101694.95;1775166;78;27305;-80
2020/12/21 07:47:29;;;;;;;57.13;27.15;;;;;;;3.08;84.50;101697.95;1783353;79;26579;-80
2020/12/21 07:49:58;;;;;;;59.35;27.75;;;;;;;3.10;84.52;101699.19;1739693;79;25436;-80
2020/12/21 07:52:27;;;;;;;67.58;29.63;;;;;;;3.10;84.49;101696.04;1759065;79;25948;-80
2020/12/21 07:55:02;;;;;;;60.67;26.17;;;;;;;3.13;84.49;101695.83;1782761;79;25835;-80
2020/12/21 07:57:30;;;;;;;61.42;29.82;;;;;;;3.14;84.45;101698.83;1772346;79;27524;-80
2020/12/21 07:59:59;;;;;;;68.40;29.65;;;;;;;3.14;84.46;101690.06;1720404;79;25765;-80
2020/12/21 08:02:27;;;;;;;55.98;27.27;;;;;;;3.16;84.48;101687.29;1773508;79;26441;-80
2020/12/21 08:04:58;;;;;;;64.60;30.55;;;;;;;3.16;84.37;101685.50;1773510;79;25789;-80
2020/12/21 08:07:30;;;;;;;62.85;31.23;;;;;;;3.15;84.37;101686.44;1788311;79;26002;-79
2020/12/21 08:09:58;;;;;;;64.07;29.00;;;;;;;3.16;84.38;101684.64;1711638;80;27721;-80
2020/12/21 08:15:09;;;;;;;61.65;28.87;;;;;;;3.27;84.39;101682.91;1796637;78;25799;-80
2020/12/21 08:17:37;;;;;;;63.30;30.15;;;;;;;3.22;84.32;101681.54;1748376;80;25805;-80
2020/12/21 08:20:09;;;;;;;67.67;30.75;;;;;;;3.21;84.35;101688.63;1754394;80;27087;-80
2020/12/21 08:22:42;;;;;;;63.38;30.20;;;;;;;3.23;84.37;101688.54;1751531;80;26249;-80
2020/12/21 08:25:14;;;;;;;62.80;31.87;;;;;;;3.26;84.34;101689.14;1745452;80;25860;-80
2020/12/21 08:27:52;;;;;;;69.10;31.82;;;;;;;3.27;84.37;101691.32;1766762;80;26489;-80
2020/12/21 08:30:23;;;;;;;68.33;30.60;;;;;;;3.29;84.28;101686.76;1755078;80;25374;-80
2020/12/21 08:32:55;;;;;;;68.10;31.87;;;;;;;3.29;84.29;101678.81;1766509;80;27488;-80
2020/12/21 08:35:28;;;;;;;67.60;29.60;;;;;;;3.32;84.30;101687.83;1693607;80;25778;-80
2020/12/21 08:38:17;;;;;;;65.28;30.05;;;;;;;3.35;84.24;101688.47;1674276;81;25779;-80
2020/12/21 08:40:55;;;;;;;65.65;30.88;;;;;;;3.34;84.16;101684.12;1661026;85;25976;-80
2020/12/21 08:43:23;;;;;;;65.55;29.37;;;;;;;3.35;84.14;101688.94;1690403;84;25728;-80
2020/12/21 08:45:50;;;;;;;61.92;29.60;;;;;;;3.37;84.20;101691.84;1647227;84;28832;-80
2020/12/21 08:48:18;;;;;;;67.50;30.20;;;;;;;3.39;84.21;101693.91;1668134;84;25635;-80
2020/12/21 08:50:46;;;;;;;68.87;32.95;;;;;;;3.42;84.13;101700.27;1615218;87;25478;-80
2020/12/21 08:53:13;;;;;;;67.67;32.35;;;;;;;3.42;84.17;101692.33;1635663;86;25803;-80
2020/12/21 08:55:43;;;;;;;63.10;29.75;;;;;;;3.44;84.18;101698.39;1643660;86;26178;-79
2020/12/21 08:58:12;;;;;;;67.10;32.65;;;;;;;3.46;84.11;101694.30;1642880;86;28951;-79
2020/12/21 09:00:41;;;;;;;60.25;30.97;;;;;;;3.48;84.18;101696.34;1620150;86;25982;-80
2020/12/21 09:03:08;;;;;;;65.92;30.82;;;;;;;3.49;84.03;101693.57;1634620;86;25771;-80
2020/12/21 09:05:39;;;;;;;66.25;32.70;;;;;;;3.51;84.04;101696.95;1635174;86;26072;-80
2020/12/21 09:08:06;;;;;;;66.55;32.50;;;;;;;3.55;84.13;101691.78;1615426;87;25979;-80
2020/12/21 09:10:34;;;;;;;58.73;28.80;;;;;;;3.56;84.13;101690.84;1604317;87;28697;-80
2020/12/21 09:13:01;;;;;;;65.75;31.20;;;;;;;3.60;84.09;101690.97;1622290;87;26154;-80
2020/12/21 09:15:28;;;;;;;54.00;28.85;;;;;;;3.60;83.97;101688.79;1587355;87;25847;-80
2020/12/21 09:17:56;;;;;;;62.05;30.20;;;;;;;3.62;83.95;101686.87;1638564;86;26147;-79
2020/12/21 09:20:23;;;;;;;68.05;32.60;;;;;;;3.64;83.92;101688.92;1620362;86;25804;-80
2020/12/21 09:22:50;;;;;;;59.93;30.92;;;;;;;3.65;83.85;101678.70;1627461;86;27549;-80
2020/12/21 09:25:18;;;;;;;63.13;30.15;;;;;;;3.65;83.70;101679.55;1606892;86;25858;-80
2020/12/21 09:27:46;;;;;;;64.00;32.13;;;;;;;3.66;83.83;101677.25;1598036;87;25645;-80
2020/12/21 09:30:13;;;;;;;59.10;30.50;;;;;;;3.69;83.82;101681.48;1637872;87;25392;-80
2020/12/21 09:32:41;;;;;;;61.95;32.13;;;;;;;3.71;83.77;101676.44;1623934;87;25877;-80
2020/12/21 09:35:09;;;;;;;68.95;30.30;;;;;;;3.76;83.80;101682.71;1588673;87;27555;-79
2020/12/21 09:37:36;;;;;;;66.12;35.08;;;;;;;3.78;83.71;101674.16;1605296;86;26488;-80
2020/12/21 09:40:03;;;;;;;61.05;32.23;;;;;;;3.80;83.66;101662.48;1620009;86;26557;-81
2020/12/21 09:42:31;;;;;;;58.15;29.42;;;;;;;3.83;83.65;101657.41;1641818;86;25838;-80
2020/12/21 09:44:58;;;;;;;57.93;30.50;;;;;;;3.83;83.60;101664.89;1586089;86;25820;-80
2020/12/21 09:47:25;;;;;;;55.50;30.92;;;;;;;3.86;83.63;101658.03;1621114;86;28842;-80
2020/12/21 09:49:53;;;;;;;62.17;30.52;;;;;;;3.90;83.65;101660.81;1602820;86;25929;-80
2020/12/21 09:52:21;;;;;;;54.40;27.93;;;;;;;3.91;83.36;101655.86;1648377;86;25816;-80
2020/12/21 09:54:48;;;;;;;60.12;29.77;;;;;;;3.91;83.30;101655.04;1585001;86;25934;-80
2020/12/21 09:57:16;;;;;;;54.60;30.25;;;;;;;3.93;83.36;101652.26;1619994;86;26131;-80
2020/12/21 09:59:43;;;;;;;59.08;30.52;;;;;;;3.97;83.42;101652.38;1619663;86;27360;-80
2020/12/21 10:02:10;;;;;;;63.42;30.37;;;;;;;3.98;83.41;101648.78;1646105;86;26291;-80
2020/12/21 10:04:38;;;;;;;55.48;28.17;;;;;;;4.02;83.38;101652.88;1579602;86;25937;-80
2020/12/21 10:07:05;;;;;;;60.05;30.72;;;;;;;4.04;83.30;101646.50;1623753;86;25741;-81
2020/12/21 10:09:32;;;;;;;56.08;29.30;;;;;;;4.04;83.28;101645.17;1622882;86;25902;-79
2020/12/21 10:12:00;;;;;;;48.48;25.57;;;;;;;4.05;83.28;101650.82;1645743;86;27586;-80
2020/12/21 10:14:27;;;;;;;59.00;31.50;;;;;;;4.04;83.06;101650.48;1577530;87;26229;-80
2020/12/21 10:16:54;;;;;;;65.47;33.28;;;;;;;4.06;83.01;101646.38;1608079;87;25536;-79
2020/12/21 10:19:22;;;;;;;54.38;28.07;;;;;;;4.10;83.18;101642.52;1618388;87;25880;-79
2020/12/21 10:21:50;;;;;;;58.60;29.25;;;;;;;4.12;83.12;101646.73;1624438;87;25791;-80
2020/12/21 10:24:17;;;;;;;57.85;30.23;;;;;;;4.16;83.04;101636.72;1524342;90;26772;-80
2020/12/21 10:26:44;;;;;;;53.38;27.48;;;;;;;4.18;83.04;101632.14;1563841;90;26328;-80
2020/12/21 10:29:12;;;;;;;54.58;28.90;;;;;;;4.20;83.11;101635.05;1565717;90;25932;-80
2020/12/21 10:31:39;;;;;;;55.20;29.00;;;;;;;4.24;83.26;101620.57;1587305;87;25934;-80
2020/12/21 10:34:07;;;;;;;59.35;29.45;;;;;;;4.28;83.02;101618.03;1565656;90;25978;-80
2020/12/21 10:36:34;;;;;;;55.92;26.73;;;;;;;4.32;82.98;101620.80;1585735;86;27564;-80
2020/12/21 10:39:02;;;;;;;58.83;30.08;;;;;;;4.34;82.61;101613.56;1615969;86;25905;-80
2020/12/21 10:41:33;;;;;;;56.53;28.62;;;;;;;4.34;82.67;101610.91;1644394;86;25370;-80
2020/12/21 10:44:02;;;;;;;62.23;30.57;;;;;;;4.35;82.62;101609.11;1622593;86;25802;-80
2020/12/21 10:46:29;;;;;;;51.05;28.05;;;;;;;4.36;82.76;101614.80;1624532;86;26170;-80
2020/12/21 10:48:56;;;;;;;53.58;28.57;;;;;;;4.39;82.80;101607.89;1631583;87;28791;-80
2020/12/21 10:51:31;;;;;;;54.10;26.68;;;;;;;4.43;82.71;101614.64;1653872;85;26022;-80
2020/12/21 10:54:00;;;;;;;45.80;24.18;;;;;;;4.44;82.56;101603.92;1603052;86;25470;-80
2020/12/21 10:56:28;;;;;;;49.33;26.42;;;;;;;4.45;82.33;101610.05;1616015;86;26153;-80
2020/12/21 10:58:56;;;;;;;53.48;26.50;;;;;;;4.44;82.33;101609.23;1609643;86;25802;-80
2020/12/21 11:01:24;;;;;;;52.48;27.50;;;;;;;4.47;82.38;101614.78;1652422;86;27477;-81
2020/12/21 11:03:51;;;;;;;54.27;26.48;;;;;;;4.51;82.50;101612.23;1590136;86;25455;-80
2020/12/21 11:06:21;;;;;;;45.20;25.55;;;;;;;4.53;82.50;101607.66;1608990;86;26512;-81
2020/12/21 11:08:49;;;;;;;55.33;29.32;;;;;;;4.55;82.41;101611.02;1622850;86;26160;-81
2020/12/21 11:11:26;;;;;;;49.90;27.80;;;;;;;4.54;82.38;101603.54;1641458;86;26122;-80
2020/12/21 11:14:03;;;;;;;53.02;26.73;;;;;;;4.62;82.27;101596.27;1819287;77;26008;-80
2020/12/21 11:16:31;;;;;;;52.70;27.67;;;;;;;4.55;82.09;101598.61;1780601;78;25855;-80
2020/12/21 11:18:58;;;;;;;63.92;28.98;;;;;;;4.56;82.27;101600.75;1760155;80;28713;-80
2020/12/21 11:21:26;;;;;;;56.45;29.98;;;;;;;4.56;82.16;101594.97;1785301;78;26211;-80
2020/12/21 11:23:53;;;;;;;54.08;27.50;;;;;;;4.58;82.24;101595.69;1728502;78;25893;-80
2020/12/21 11:26:21;;;;;;;51.30;27.10;;;;;;;4.61;82.22;101591.47;1735019;80;25878;-80
2020/12/21 11:28:48;;;;;;;58.83;31.75;;;;;;;4.61;82.09;101583.98;1759638;80;26495;-80
2020/12/21 11:31:19;;;;;;;61.33;32.13;;;;;;;4.62;81.90;101586.98;1784418;80;27535;-80